.
WxDataArchive / Data Records for 2012-03-10
2012-03-09 March 2012 2012-03-11

Data Records for Saturday, 10 March 2012

Time	Temp	Chill	HIndex	Humid	Dewpt	 Wind 	HiWind	WindDir	Rain 	Barom 
-----	----	-----	------	-----	-----	------	------	-------	-----	----- 
00:00	25.0	25.0	25.0	63	14.2	0	0	---	0.00	30.544 
00:05	25.0	25.0	25.0	64	14.6	0	1	315	0.00	30.544 
00:10	24.8	24.8	24.8	64	14.4	0	0	---	0.00	30.544 
00:15	24.8	24.8	24.8	64	14.4	0	0	---	0.00	30.547 
00:20	24.7	24.7	24.7	64	14.3	0	0	---	0.00	30.547 
00:25	24.4	24.4	24.4	65	14.3	0	0	---	0.00	30.547 
00:30	24.2	24.2	24.2	65	14.2	0	0	---	0.00	30.547 
00:35	23.9	23.9	23.9	65	13.9	0	0	---	0.00	30.547 
00:40	23.8	23.8	23.8	66	14.1	0	0	---	0.00	30.547 
00:45	23.6	23.6	23.6	66	13.9	0	0	---	0.00	30.546 
00:50	23.5	23.5	23.5	67	14.2	0	0	---	0.00	30.546 
00:55	23.3	23.3	23.3	67	14.0	0	0	---	0.00	30.546 
01:00	23.2	23.2	23.2	69	14.6	0	0	---	0.00	30.552 
01:05	23.0	23.0	23.0	69	14.4	0	0	---	0.00	30.552 
01:10	22.9	22.9	22.9	69	14.3	0	0	---	0.00	30.552 
01:15	22.7	22.7	22.7	70	14.4	0	0	---	0.00	30.558 
01:20	22.5	22.5	22.5	71	14.5	0	0	---	0.00	30.558 
01:25	22.4	22.4	22.4	71	14.4	0	0	---	0.00	30.558 
01:30	22.4	22.4	22.4	71	14.4	0	0	---	0.00	30.555 
01:35	22.2	22.2	22.2	71	14.3	0	0	---	0.00	30.555 
01:40	22.1	22.1	22.1	72	14.5	0	0	---	0.00	30.555 
01:45	22.1	22.1	22.1	73	14.8	0	0	---	0.00	30.559 
01:50	21.9	21.9	21.9	73	14.6	0	0	---	0.00	30.559 
01:55	21.9	21.9	21.9	73	14.6	0	0	---	0.00	30.559 
02:00	21.8	21.8	21.8	73	14.5	0	0	---	0.00	30.554 
02:05	21.8	21.8	21.8	74	14.8	0	0	---	0.00	30.554 
02:10	21.6	21.6	21.6	74	14.6	0	0	---	0.00	30.554 
02:15	21.4	21.4	21.4	75	14.7	0	0	---	0.00	30.548 
02:20	21.4	21.4	21.4	75	14.7	0	0	---	0.00	30.548 
02:25	21.4	21.4	21.4	75	14.7	0	0	---	0.00	30.548 
02:30	21.4	21.4	21.4	75	14.7	0	0	---	0.00	30.549 
02:35	21.3	21.3	21.3	76	14.9	0	0	---	0.00	30.549 
02:40	21.3	21.3	21.3	76	14.9	0	0	---	0.00	30.549 
02:45	21.3	21.3	21.3	76	14.9	0	0	---	0.00	30.549 
02:50	21.1	21.1	21.1	76	14.7	0	0	---	0.00	30.549 
02:55	21.1	21.1	21.1	76	14.7	0	0	---	0.00	30.549 
03:00	21.0	21.0	21.0	76	14.6	0	0	---	0.00	30.550 
03:05	21.0	21.0	21.0	77	14.9	0	0	---	0.00	30.550 
03:10	20.8	20.8	20.8	77	14.7	0	0	---	0.00	30.550 
03:15	20.8	20.8	20.8	77	14.7	0	0	---	0.00	30.549 
03:20	20.6	20.6	20.6	77	14.6	0	0	---	0.00	30.549 
03:25	20.6	20.6	20.6	77	14.6	0	0	---	0.00	30.549 
03:30	20.6	20.6	20.6	78	14.8	0	0	---	0.00	30.549 
03:35	20.5	20.5	20.5	78	14.8	0	0	---	0.00	30.549 
03:40	20.5	20.5	20.5	78	14.8	0	0	---	0.00	30.549 
03:45	20.6	20.6	20.6	78	14.8	0	0	---	0.00	30.549 
03:50	20.6	20.6	20.6	79	15.1	0	0	---	0.00	30.549 
03:55	20.5	20.5	20.5	79	15.0	0	0	---	0.00	30.549 
04:00	20.5	20.5	20.5	79	15.0	0	0	---	0.00	30.551 
04:05	20.5	20.5	20.5	79	15.0	0	0	---	0.00	30.551 
04:10	20.6	20.6	20.6	80	15.4	0	0	---	0.00	30.551 
04:15	20.8	20.8	20.8	80	15.6	0	0	---	0.00	30.561 
04:20	21.1	21.1	21.1	80	15.9	0	0	---	0.00	30.561 
04:25	21.1	21.1	21.1	80	15.9	0	0	---	0.00	30.561 
04:30	21.3	21.3	21.3	80	16.1	0	0	---	0.00	30.568 
04:35	21.3	21.3	21.3	80	16.1	0	0	---	0.00	30.568 
04:40	21.4	21.4	21.4	81	16.5	0	0	---	0.00	30.568 
04:45	21.6	21.6	21.6	80	16.4	0	0	---	0.00	30.565 
04:50	21.6	21.6	21.6	80	16.4	0	0	---	0.00	30.565 
04:55	21.8	21.8	21.8	81	16.9	0	0	---	0.00	30.565 
05:00	21.9	21.9	21.9	80	16.7	0	0	---	0.00	30.556 
05:05	22.1	22.1	22.1	80	16.9	0	0	---	0.00	30.556 
05:10	22.1	22.1	22.1	80	16.9	0	0	---	0.00	30.556 
05:15	22.2	22.2	22.2	80	17.0	0	0	---	0.00	30.558 
05:20	22.4	22.4	22.4	80	17.2	0	0	---	0.00	30.558 
05:25	22.7	22.7	22.7	79	17.2	0	0	---	0.00	30.558 
05:30	22.9	22.9	22.9	79	17.4	0	0	---	0.00	30.559 
05:35	23.0	23.0	23.0	78	17.2	0	0	---	0.00	30.559 
05:40	23.0	23.0	23.0	78	17.2	0	0	---	0.00	30.559 
05:45	23.2	23.2	23.2	78	17.4	0	0	---	0.00	30.562 
05:50	23.3	23.3	23.3	78	17.5	0	0	---	0.00	30.562 
05:55	23.3	23.3	23.3	78	17.5	0	0	---	0.00	30.562 
06:00	23.5	23.5	23.5	77	17.4	0	1	315	0.00	30.563 
06:05	23.8	23.8	23.8	76	17.4	0	2	315	0.00	30.563 
06:10	24.1	24.1	24.1	73	16.7	0	2	0	0.00	30.563 
06:15	24.2	24.2	24.2	72	16.5	0	2	0	0.00	30.561 
06:20	24.5	24.5	24.5	71	16.5	1	3	0	0.00	30.561 
06:25	24.5	24.5	24.5	71	16.5	1	2	0	0.00	30.561 
06:30	24.7	24.7	24.7	70	16.3	0	2	22	0.00	30.559 
06:35	24.5	24.5	24.5	70	16.1	0	2	22	0.00	30.559 
06:40	24.5	24.5	24.5	70	16.1	0	1	22	0.00	30.559 
06:45	24.4	24.4	24.4	70	16.0	0	2	22	0.00	30.559 
06:50	24.4	24.4	24.4	70	16.0	0	1	22	0.00	30.559 
06:55	24.4	24.4	24.4	70	16.0	0	1	22	0.00	30.559 
07:00	24.4	24.4	24.4	70	16.0	0	1	22	0.00	30.552 
07:05	24.5	24.5	24.5	69	15.8	1	3	22	0.00	30.552 
07:10	24.5	24.5	24.5	69	15.8	0	1	22	0.00	30.552 
07:15	24.7	24.7	24.7	69	16.0	0	1	22	0.00	30.551 
07:20	24.7	24.7	24.7	69	16.0	0	2	22	0.00	30.551 
07:25	24.7	24.7	24.7	69	16.0	1	4	45	0.00	30.551 
07:30	24.7	24.7	24.7	69	16.0	0	1	68	0.00	30.552 
07:35	24.7	24.7	24.7	69	16.0	0	2	68	0.00	30.552 
07:40	24.8	24.8	24.8	68	15.8	0	2	68	0.00	30.552 
07:45	25.1	25.1	25.1	68	16.1	0	2	68	0.00	30.555 
07:50	25.7	25.7	25.7	68	16.6	0	2	68	0.00	30.555 
07:55	26.3	26.3	26.3	66	16.5	0	2	68	0.00	30.555 
08:00	26.6	26.6	26.6	65	16.4	1	2	135	0.00	30.552 
08:05	26.9	26.9	26.9	65	16.7	1	3	135	0.00	30.552 
08:10	27.0	27.0	27.0	65	16.8	1	3	135	0.00	30.552 
08:15	27.0	27.0	27.0	65	16.8	1	5	112	0.00	30.551 
08:20	27.3	27.3	27.3	65	17.1	1	4	112	0.00	30.551 
08:25	27.6	27.6	27.6	63	16.7	2	7	112	0.00	30.551 
08:30	27.8	27.8	27.8	62	16.5	2	5	68	0.00	30.551 
08:35	28.1	28.1	28.1	62	16.8	1	4	90	0.00	30.551 
08:40	28.7	28.7	28.7	61	17.0	1	5	90	0.00	30.551 
08:45	29.0	29.0	29.0	60	16.9	2	4	112	0.00	30.552 
08:50	29.1	29.1	29.1	58	16.2	2	7	112	0.00	30.552 
08:55	29.3	29.3	29.3	57	16.0	3	7	90	0.00	30.552 
09:00	29.4	29.4	29.4	58	16.5	2	5	90	0.00	30.551 
09:05	29.7	29.7	29.7	55	15.5	2	7	68	0.00	30.551 
09:10	30.1	30.1	30.1	54	15.5	3	9	90	0.00	30.551 
09:15	30.4	30.4	30.4	55	16.2	3	7	90	0.00	30.554 
09:20	30.9	30.9	30.9	54	16.2	3	7	68	0.00	30.554 
09:25	31.6	31.6	31.6	54	16.9	2	5	112	0.00	30.554 
09:30	32.2	32.2	32.2	52	16.6	2	5	68	0.00	30.553 
09:35	32.2	32.2	32.2	51	16.1	3	7	90	0.00	30.553 
09:40	32.4	32.4	32.4	51	16.3	3	6	90	0.00	30.553 
09:45	32.7	32.7	32.7	51	16.6	3	9	90	0.00	30.545 
09:50	32.9	32.9	32.9	50	16.3	3	7	90	0.00	30.545 
09:55	33.2	33.2	33.2	52	17.5	2	5	90	0.00	30.545 
10:00	33.7	33.7	33.7	50	17.1	3	7	112	0.00	30.536 
10:05	34.0	34.0	34.0	50	17.3	3	7	90	0.00	30.536 
10:10	34.1	34.1	34.1	49	17.0	3	10	90	0.00	30.536 
10:15	34.1	34.1	34.1	48	16.5	3	9	112	0.00	30.532 
10:20	34.6	34.6	34.6	49	17.4	2	7	90	0.00	30.532 
10:25	35.2	35.2	35.2	49	18.0	2	6	90	0.00	30.532 
10:30	35.6	35.6	35.6	49	18.3	2	5	90	0.00	30.527 
10:35	36.2	36.2	36.2	50	19.4	1	6	270	0.00	30.527 
10:40	36.6	36.6	36.6	47	18.3	1	6	270	0.00	30.527 
10:45	37.0	37.0	37.0	47	18.7	1	9	90	0.00	30.526 
10:50	37.5	37.5	37.5	46	18.6	1	3	112	0.00	30.526 
10:55	37.8	37.8	37.8	45	18.4	2	5	68	0.00	30.526 
11:00	38.0	38.0	38.0	44	18.0	1	5	90	0.00	30.521 
11:05	38.5	38.5	38.5	45	19.0	1	3	90	0.00	30.521 
11:10	38.6	38.6	38.6	42	17.5	2	6	90	0.00	30.521 
11:15	38.5	38.5	38.5	44	18.5	1	3	68	0.00	30.515 
11:20	38.2	38.2	38.2	42	17.2	2	5	248	0.00	30.515 
11:25	38.3	38.3	38.3	46	19.4	2	7	90	0.00	30.515 
11:30	38.5	38.5	38.5	42	17.4	2	6	248	0.00	30.513 
11:35	38.8	38.8	38.8	43	18.2	1	5	248	0.00	30.513 
11:40	39.2	39.2	39.2	43	18.6	2	5	90	0.00	30.513 
11:45	39.3	39.3	39.3	41	17.6	1	5	270	0.00	30.504 
11:50	39.5	39.5	39.5	41	17.8	2	4	248	0.00	30.504 
11:55	39.8	39.8	39.8	44	19.7	1	4	248	0.00	30.504 
12:00	40.2	40.2	40.2	43	19.5	3	7	248	0.00	30.498 
12:05	40.5	40.5	40.5	40	18.1	2	7	248	0.00	30.498 
12:10	40.3	40.3	40.3	41	18.5	3	9	248	0.00	30.498 
12:15	40.8	40.8	40.8	39	17.8	3	7	90	0.00	30.493 
12:20	40.8	40.8	40.8	40	18.4	3	11	90	0.00	30.493 
12:25	41.3	41.3	41.3	42	20.0	2	7	90	0.00	30.493 
12:30	41.9	41.9	41.9	41	19.9	2	6	90	0.00	30.483 
12:35	42.3	42.3	42.3	37	17.9	2	7	90	0.00	30.483 
12:40	42.5	42.5	42.5	39	19.3	2	6	248	0.00	30.483 
12:45	42.8	42.8	42.8	38	19.0	2	7	248	0.00	30.480 
12:50	42.9	42.9	42.9	39	19.7	3	5	292	0.00	30.480 
12:55	43.1	43.1	43.1	39	19.8	1	5	248	0.00	30.480 
13:00	43.5	43.5	43.5	39	20.2	1	4	248	0.00	30.473 
13:05	43.9	43.9	43.9	35	18.0	3	7	248	0.00	30.473 
13:10	44.1	44.1	44.1	34	17.5	2	6	248	0.00	30.473 
13:15	44.2	44.2	44.2	35	18.3	2	5	248	0.00	30.465 
13:20	44.6	44.6	44.6	39	21.2	1	6	248	0.00	30.465 
13:25	45.2	45.2	45.2	37	20.5	2	8	68	0.00	30.465 
13:30	45.4	45.4	45.4	37	20.7	2	5	248	0.00	30.458 
13:35	45.4	45.4	45.4	35	19.4	3	7	248	0.00	30.458 
13:40	45.7	45.7	45.7	37	20.9	1	6	248	0.00	30.458 
13:45	46.0	46.0	46.0	36	20.6	2	8	112	0.00	30.447 
13:50	46.2	46.2	46.2	36	20.7	2	5	248	0.00	30.447 
13:55	46.7	46.7	46.7	34	19.8	2	6	248	0.00	30.447 
14:00	47.1	47.1	47.1	31	18.0	2	6	248	0.00	30.439 
14:05	47.3	47.3	47.3	33	19.7	2	6	270	0.00	30.439 
14:10	47.7	47.7	47.7	34	20.7	1	5	248	0.00	30.439 
14:15	48.2	48.2	48.2	31	19.0	1	5	112	0.00	30.426 
14:20	48.5	48.5	48.5	32	20.0	2	5	225	0.00	30.426 
14:25	49.1	49.1	49.1	31	19.8	1	5	225	0.00	30.426 
14:30	49.2	49.2	49.2	31	19.9	2	5	248	0.00	30.419 
14:35	48.9	48.9	48.9	31	19.6	2	9	248	0.00	30.419 
14:40	49.1	49.1	49.1	31	19.8	2	5	248	0.00	30.419 
14:45	49.2	49.2	49.2	34	22.0	2	5	90	0.00	30.413 
14:50	49.4	49.4	49.4	30	19.3	2	6	248	0.00	30.413 
14:55	49.6	49.6	49.6	31	20.2	2	6	248	0.00	30.413 
15:00	49.6	49.6	49.6	29	18.7	3	9	248	0.00	30.410 
15:05	49.8	49.8	49.8	29	18.8	3	7	248	0.00	30.410 
15:10	50.1	50.1	50.1	31	20.7	2	5	270	0.00	30.410 
15:15	50.4	50.4	50.4	30	20.2	2	6	248	0.00	30.401 
15:20	50.7	50.7	50.7	30	20.4	2	4	248	0.00	30.401 
15:25	51.1	51.1	51.1	31	21.5	2	5	248	0.00	30.401 
15:30	51.1	51.1	51.1	30	20.8	2	6	90	0.00	30.395 
15:35	51.0	51.0	51.0	29	19.9	3	7	248	0.00	30.395 
15:40	51.0	51.0	51.0	31	21.4	2	7	248	0.00	30.395 
15:45	51.1	51.1	51.1	29	20.0	2	9	248	0.00	30.387 
15:50	51.4	51.4	51.4	30	21.0	2	7	248	0.00	30.387 
15:55	51.6	51.6	51.6	32	22.7	1	4	270	0.00	30.387 
16:00	51.7	51.7	51.7	33	23.5	2	6	225	0.00	30.380 
16:05	51.6	51.6	51.6	33	23.4	2	12	248	0.00	30.380 
16:10	51.6	51.6	51.6	30	21.2	2	7	248	0.00	30.380 
16:15	51.6	51.6	51.6	31	22.0	2	7	225	0.00	30.375 
16:20	51.6	51.6	51.6	31	22.0	2	6	248	0.00	30.375 
16:25	51.6	51.6	51.6	33	23.4	1	6	248	0.00	30.375 
16:30	51.6	51.6	51.6	31	22.0	2	7	248	0.00	30.366 
16:35	51.4	51.4	51.4	31	21.8	3	10	248	0.00	30.366 
16:40	51.4	51.4	51.4	32	22.5	2	10	248	0.00	30.366 
16:45	51.4	51.4	51.4	33	23.3	2	6	225	0.00	30.365 
16:50	51.4	51.4	51.4	33	23.3	2	7	248	0.00	30.365 
16:55	51.4	51.4	51.4	32	22.5	3	9	248	0.00	30.365 
17:00	51.4	51.4	51.4	33	23.3	2	10	270	0.00	30.366 
17:05	51.4	51.4	51.4	34	24.0	2	7	248	0.00	30.366 
17:10	51.4	51.4	51.4	33	23.3	2	7	248	0.00	30.366 
17:15	51.4	51.4	51.4	34	24.0	2	5	248	0.00	30.361 
17:20	51.4	51.4	51.4	34	24.0	2	7	248	0.00	30.361 
17:25	51.3	51.3	51.3	35	24.6	2	9	248	0.00	30.361 
17:30	51.1	51.1	51.1	35	24.4	2	7	248	0.00	30.359 
17:35	51.0	51.0	51.0	35	24.3	2	6	248	0.00	30.359 
17:40	51.0	51.0	51.0	36	25.0	1	3	270	0.00	30.359 
17:45	50.8	50.8	50.8	36	24.8	1	5	248	0.00	30.353 
17:50	50.7	50.7	50.7	36	24.7	1	4	248	0.00	30.353 
17:55	50.5	50.5	50.5	36	24.6	1	7	270	0.00	30.353 
18:00	50.4	50.4	50.4	36	24.5	1	6	248	0.00	30.352 
18:05	50.2	50.2	50.2	36	24.3	1	4	248	0.00	30.352 
18:10	50.1	50.1	50.1	37	24.9	2	7	248	0.00	30.352 
18:15	49.8	49.8	49.8	37	24.6	2	6	270	0.00	30.346 
18:20	49.6	49.6	49.6	39	25.7	0	3	270	0.00	30.346 
18:25	49.2	49.2	49.2	39	25.3	1	5	68	0.00	30.346 
18:30	48.9	48.9	48.9	40	25.7	1	3	270	0.00	30.346 
18:35	48.6	48.6	48.6	40	25.4	1	3	270	0.00	30.346 
18:40	48.3	48.3	48.3	41	25.7	0	2	270	0.00	30.346 
18:45	47.9	47.9	47.9	42	25.9	0	3	270	0.00	30.346 
18:50	47.6	47.6	47.6	43	26.2	0	2	225	0.00	30.346 
18:55	47.4	47.4	47.4	43	26.0	1	4	225	0.00	30.346 
19:00	47.3	47.3	47.3	43	25.9	0	3	270	0.00	30.343 
19:05	47.0	47.0	47.0	43	25.7	0	2	270	0.00	30.343 
19:10	46.8	46.8	46.8	44	26.0	0	4	270	0.00	30.343 
19:15	46.5	46.5	46.5	44	25.8	0	1	270	0.00	30.340 
19:20	46.2	46.2	46.2	45	26.0	0	2	270	0.00	30.340 
19:25	46.0	46.0	46.0	45	25.9	0	1	270	0.00	30.340 
19:30	46.0	46.0	46.0	46	26.4	0	2	270	0.00	30.344 
19:35	45.8	45.8	45.8	46	26.2	0	2	270	0.00	30.344 
19:40	45.7	45.7	45.7	46	26.1	1	4	270	0.00	30.344 
19:45	45.7	45.7	45.7	47	26.6	0	2	270	0.00	30.342 
19:50	45.4	45.4	45.4	47	26.4	0	3	90	0.00	30.342 
19:55	45.2	45.2	45.2	48	26.7	0	1	90	0.00	30.342 
20:00	44.9	44.9	44.9	48	26.4	0	1	90	0.00	30.341 
20:05	44.6	44.6	44.6	49	26.6	0	1	90	0.00	30.341 
20:10	44.3	44.3	44.3	49	26.4	0	2	90	0.00	30.341 
20:15	44.1	44.1	44.1	50	26.7	0	1	90	0.00	30.341 
20:20	43.9	43.9	43.9	51	27.0	0	3	225	0.00	30.341 
20:25	43.6	43.6	43.6	52	27.1	0	1	225	0.00	30.341 
20:30	43.3	43.3	43.3	52	26.9	0	1	225	0.00	30.338 
20:35	43.2	43.2	43.2	52	26.8	0	2	225	0.00	30.338 
20:40	43.1	43.1	43.1	52	26.7	0	2	225	0.00	30.338 
20:45	42.9	42.9	42.9	53	27.0	0	1	225	0.00	30.334 
20:50	42.6	42.6	42.6	53	26.7	0	1	225	0.00	30.334 
20:55	42.5	42.5	42.5	54	27.0	0	1	225	0.00	30.334 
21:00	42.3	42.3	42.3	54	26.9	0	1	225	0.00	30.334 
21:05	42.2	42.2	42.2	54	26.8	0	1	225	0.00	30.334 
21:10	42.1	42.1	42.1	55	27.1	0	1	225	0.00	30.334 
21:15	41.9	41.9	41.9	55	26.9	0	1	225	0.00	30.330 
21:20	41.8	41.8	41.8	55	26.8	0	1	225	0.00	30.330 
21:25	41.6	41.6	41.6	56	27.1	0	2	225	0.00	30.330 
21:30	41.6	41.6	41.6	56	27.1	0	2	225	0.00	30.328 
21:35	41.5	41.5	41.5	57	27.4	0	1	225	0.00	30.328 
21:40	41.3	41.3	41.3	57	27.2	0	1	225	0.00	30.328 
21:45	41.3	41.3	41.3	57	27.2	0	2	270	0.00	30.331 
21:50	41.8	41.8	41.8	56	27.3	0	3	270	0.00	30.331 
21:55	42.1	42.1	42.1	55	27.1	1	2	270	0.00	30.331 
22:00	42.5	42.5	42.5	54	27.0	1	3	270	0.00	30.330 
22:05	42.6	42.6	42.6	54	27.1	1	4	270	0.00	30.330 
22:10	42.6	42.6	42.6	53	26.7	0	2	270	0.00	30.330 
22:15	42.8	42.8	42.8	53	26.9	1	5	248	0.00	30.325 
22:20	42.8	42.8	42.8	53	26.9	0	3	248	0.00	30.325 
22:25	42.6	42.6	42.6	53	26.7	0	2	248	0.00	30.325 
22:30	42.5	42.5	42.5	53	26.6	0	2	248	0.00	30.326 
22:35	42.3	42.3	42.3	54	26.9	0	1	248	0.00	30.326 
22:40	42.2	42.2	42.2	54	26.8	0	2	248	0.00	30.326 
22:45	41.9	41.9	41.9	54	26.5	0	3	248	0.00	30.325 
22:50	41.8	41.8	41.8	54	26.4	0	3	248	0.00	30.325 
22:55	41.6	41.6	41.6	54	26.2	1	4	248	0.00	30.325 
23:00	41.6	41.6	41.6	54	26.2	0	2	248	0.00	30.327 
23:05	41.5	41.5	41.5	55	26.6	0	1	248	0.00	30.327 
23:10	41.3	41.3	41.3	55	26.4	0	2	248	0.00	30.327 
23:15	41.2	41.2	41.2	55	26.3	0	1	248	0.00	30.326 
23:20	41.1	41.1	41.1	56	26.6	0	2	248	0.00	30.326 
23:25	40.9	40.9	40.9	56	26.4	0	1	248	0.00	30.326 
23:30	40.8	40.8	40.8	56	26.3	0	2	248	0.00	30.324 
23:35	40.6	40.6	40.6	56	26.1	0	1	248	0.00	30.324 
23:40	40.6	40.6	40.6	57	26.6	0	2	248	0.00	30.324 
23:45	40.5	40.5	40.5	57	26.5	0	1	248	0.00	30.323 
23:50	40.2	40.2	40.2	57	26.2	0	2	248	0.00	30.323 
23:55	40.1	40.1	40.1	57	26.1	0	2	248	0.00	30.323 

CoCoRaHS
IN-AL-39
A2 Web Hosting
Creative Commons License
GoDaddy
search engine by freefind advanced

loaded 2018-11-20 15:35:44 • last modified 2010-11-18 10:43:29
Privacy PolicyDisclaimer
• wx.awcolley.com is powered by PmWiki v.2002016 •
• all content (unless otherwise noted) © 2018 A W Colley